createdAt,value
2024-04-13T00:01:27.765Z,6.71
2024-04-13T00:03:58.484Z,6.69
2024-04-13T00:06:29.347Z,6.70
2024-04-13T00:09:00.137Z,6.67
2024-04-13T00:11:31.338Z,6.66
2024-04-13T00:14:01.912Z,6.66
2024-04-13T00:16:33.753Z,6.66
2024-04-13T00:19:05.174Z,6.66
2024-04-13T00:21:36.014Z,6.66
2024-04-13T00:24:05.750Z,6.63
2024-04-13T00:26:36.863Z,6.58
2024-04-13T00:29:08.212Z,6.56
2024-04-13T00:31:38.864Z,6.56
2024-04-13T00:34:09.538Z,6.56
2024-04-13T00:36:41.435Z,6.56
2024-04-13T00:39:12.284Z,6.55
2024-04-13T00:41:42.895Z,6.54
2024-04-13T00:44:13.711Z,6.53
2024-04-13T00:46:43.778Z,6.50
2024-04-13T00:49:15.986Z,6.47
2024-04-13T00:51:49.337Z,6.47
2024-04-13T00:54:24.668Z,6.48
2024-04-13T00:56:55.974Z,6.48
2024-04-13T00:59:28.036Z,6.48
2024-04-13T01:02:01.156Z,6.49
2024-04-13T01:04:33.514Z,6.49
2024-04-13T01:07:04.554Z,6.47
2024-04-13T01:09:37.817Z,6.46
2024-04-13T01:12:10.773Z,6.46
2024-04-13T01:14:42.198Z,6.47
2024-04-13T01:17:13.657Z,6.48
2024-04-13T01:19:44.187Z,6.47
2024-04-13T01:22:15.739Z,6.47
2024-04-13T01:24:46.745Z,6.46
2024-04-13T01:27:19.087Z,6.44
2024-04-13T01:29:51.136Z,6.43
2024-04-13T01:32:21.875Z,6.41
2024-04-13T01:34:52.460Z,6.38
2024-04-13T01:37:23.271Z,6.38
2024-04-13T01:39:53.898Z,6.36
2024-04-13T01:42:24.476Z,6.36
2024-04-13T01:44:55.291Z,6.36
2024-04-13T01:47:26.110Z,6.36
2024-04-13T01:49:57.045Z,6.34
2024-04-13T01:52:28.562Z,6.34
2024-04-13T01:54:59.202Z,6.30
2024-04-13T01:57:30.034Z,6.27
2024-04-13T02:00:00.879Z,6.22
2024-04-13T02:02:34.499Z,6.19
2024-04-13T02:05:05.482Z,6.16
2024-04-13T02:07:37.443Z,6.09
2024-04-13T02:10:11.169Z,5.99
2024-04-13T02:12:41.752Z,5.95
2024-04-13T02:15:12.494Z,5.93
2024-04-13T02:17:44.682Z,5.93
2024-04-13T02:20:17.580Z,5.91
2024-04-13T02:23:08.900Z,5.90
2024-04-13T02:25:40.485Z,5.90
2024-04-13T02:28:11.359Z,5.91
2024-04-13T02:30:42.186Z,5.91
2024-04-13T02:33:13.078Z,5.90
2024-04-13T02:35:43.986Z,5.83
2024-04-13T02:38:15.177Z,5.71
2024-04-13T02:40:44.275Z,5.67
2024-04-13T02:43:14.990Z,5.64
2024-04-13T02:45:46.622Z,5.64
2024-04-13T02:48:17.848Z,5.64
2024-04-13T02:50:48.646Z,5.63
2024-04-13T02:53:19.182Z,5.64
2024-04-13T02:55:49.812Z,5.65
2024-04-13T02:58:20.393Z,5.65
2024-04-13T03:00:57.475Z,5.62
2024-04-13T03:03:28.609Z,5.62
2024-04-13T03:06:03.455Z,5.61
2024-04-13T03:08:34.518Z,5.61
2024-04-13T03:11:05.737Z,5.60
2024-04-13T03:13:38.024Z,5.60
2024-04-13T03:16:10.988Z,5.60
2024-04-13T03:18:43.164Z,5.58
2024-04-13T03:21:14.634Z,5.57
2024-04-13T03:23:45.362Z,5.57
2024-04-13T03:26:16.544Z,5.57
2024-04-13T03:28:48.497Z,5.55
2024-04-13T03:31:19.206Z,5.52
2024-04-13T03:33:49.911Z,5.50
2024-04-13T03:36:20.601Z,5.48
2024-04-13T03:38:56.866Z,5.47
2024-04-13T03:41:27.694Z,5.46
2024-04-13T03:43:58.324Z,5.46
2024-04-13T03:46:29.830Z,5.44
2024-04-13T03:49:01.702Z,5.43
2024-04-13T03:51:32.928Z,5.41
2024-04-13T03:54:04.836Z,5.39
2024-04-13T03:56:35.759Z,5.37
2024-04-13T03:59:06.857Z,5.33
2024-04-13T04:01:37.858Z,5.31
2024-04-13T04:04:08.939Z,5.31
2024-04-13T04:06:39.648Z,5.29
2024-04-13T04:09:11.849Z,5.23
2024-04-13T04:11:44.274Z,5.18
2024-04-13T04:14:14.902Z,5.14
2024-04-13T04:16:46.232Z,5.08
2024-04-13T04:19:16.873Z,5.06
2024-04-13T04:21:47.781Z,5.03
2024-04-13T04:24:18.510Z,5.02
2024-04-13T04:26:49.170Z,5.04
2024-04-13T04:29:19.856Z,5.05
2024-04-13T04:31:50.954Z,5.07
2024-04-13T04:34:21.615Z,5.10
2024-04-13T04:36:52.671Z,5.13
2024-04-13T04:39:22.102Z,5.16
2024-04-13T04:41:53.158Z,5.16
2024-04-13T04:44:23.777Z,5.17
2024-04-13T04:46:54.664Z,5.22
2024-04-13T04:49:25.563Z,5.26
2024-04-13T04:51:56.756Z,5.32
2024-04-13T04:54:27.472Z,5.38
2024-04-13T04:56:58.140Z,5.44
2024-04-13T04:59:28.832Z,5.50
2024-04-13T05:02:00.213Z,5.57
2024-04-13T05:04:31.112Z,5.64
2024-04-13T05:07:01.809Z,5.73
2024-04-13T05:09:32.698Z,5.80
2024-04-13T05:12:03.286Z,5.88
2024-04-13T05:14:34.251Z,5.96
2024-04-13T05:17:05.164Z,6.02
2024-04-13T05:19:39.454Z,6.07
2024-04-13T05:22:10.576Z,6.13
2024-04-13T05:24:41.349Z,6.18
2024-04-13T05:27:12.210Z,6.23
2024-04-13T05:29:43.178Z,6.31
2024-04-13T05:32:13.379Z,6.38
2024-04-13T05:34:43.947Z,6.44
2024-04-13T05:37:14.633Z,6.52
2024-04-13T05:39:45.374Z,6.62
2024-04-13T05:42:16.071Z,6.71
2024-04-13T05:44:46.726Z,6.82
2024-04-13T05:47:17.659Z,6.94
2024-04-13T05:49:48.381Z,7.07
2024-04-13T05:52:19.142Z,7.20
2024-04-13T05:54:49.814Z,7.34
2024-04-13T05:57:20.399Z,7.49
2024-04-13T05:59:51.018Z,7.64
2024-04-13T06:02:27.093Z,7.79
2024-04-13T06:04:57.743Z,7.94
2024-04-13T06:07:28.588Z,8.09
2024-04-13T06:09:59.124Z,8.25
2024-04-13T06:12:29.932Z,8.41
2024-04-13T06:15:01.276Z,8.58
2024-04-13T06:17:32.313Z,8.76
2024-04-13T06:20:03.027Z,8.95
2024-04-13T06:22:34.488Z,9.14
2024-04-13T06:25:10.359Z,9.34
2024-04-13T06:27:41.305Z,9.54
2024-04-13T06:30:11.165Z,9.74
2024-04-13T06:32:41.847Z,9.89
2024-04-13T06:35:11.182Z,10.09
2024-04-13T06:37:41.788Z,10.26
2024-04-13T06:40:13.946Z,10.46
2024-04-13T06:42:44.555Z,10.67
2024-04-13T06:45:15.652Z,10.88
2024-04-13T06:47:46.255Z,11.10
2024-04-13T06:50:17.007Z,11.33
2024-04-13T06:52:46.063Z,11.55
2024-04-13T06:55:17.872Z,11.74
2024-04-13T06:57:48.467Z,11.98
2024-04-13T07:00:18.053Z,12.22
2024-04-13T07:02:49.510Z,12.46
2024-04-13T07:05:20.428Z,12.75
2024-04-13T07:07:50.936Z,13.04
2024-04-13T07:10:21.843Z,13.32
2024-04-13T07:12:52.471Z,13.61
2024-04-13T07:15:22.352Z,13.87
2024-04-13T07:17:52.938Z,14.08
2024-04-13T07:20:23.432Z,14.36
2024-04-13T07:22:52.621Z,14.64
2024-04-13T07:25:23.203Z,14.84
2024-04-13T07:27:53.766Z,15.04
2024-04-13T07:30:24.617Z,15.20
2024-04-13T07:32:53.821Z,15.33
2024-04-13T07:35:24.562Z,15.44
2024-04-13T07:37:56.315Z,15.58
2024-04-13T07:40:27.492Z,15.69
2024-04-13T07:42:58.713Z,15.81
2024-04-13T07:45:29.538Z,15.90
2024-04-13T07:48:00.428Z,15.99
2024-04-13T07:50:31.199Z,16.15
2024-04-13T07:53:00.314Z,16.25
2024-04-13T07:55:31.107Z,16.29
2024-04-13T07:58:01.743Z,16.36
2024-04-13T08:00:32.555Z,16.43
2024-04-13T08:03:03.745Z,16.48
2024-04-13T08:05:34.610Z,16.55
2024-04-13T08:08:03.708Z,16.57
2024-04-13T08:10:38.315Z,16.55
2024-04-13T08:13:08.889Z,16.61
2024-04-13T08:15:42.176Z,16.64
2024-04-13T08:18:13.942Z,16.64
2024-04-13T08:20:46.530Z,16.62
2024-04-13T08:23:17.061Z,16.59
2024-04-13T08:25:47.795Z,16.61
2024-04-13T08:28:18.508Z,16.66
2024-04-13T08:30:49.268Z,16.69
2024-04-13T08:33:20.068Z,16.75
2024-04-13T08:35:59.489Z,16.79
2024-04-13T08:38:30.368Z,16.78
2024-04-13T08:41:05.094Z,16.73
2024-04-13T08:43:35.776Z,16.69
2024-04-13T08:46:08.887Z,16.68
2024-04-13T08:48:41.889Z,16.64
2024-04-13T08:51:13.313Z,16.64
2024-04-13T08:53:48.344Z,16.66
2024-04-13T08:56:21.149Z,16.68
2024-04-13T08:58:55.270Z,16.72
2024-04-13T09:01:27.745Z,16.80
2024-04-13T09:03:59.727Z,16.86
2024-04-13T09:06:31.408Z,16.92
2024-04-13T09:09:09.641Z,17.01
2024-04-13T09:11:41.091Z,17.12
2024-04-13T09:14:13.072Z,17.24
2024-04-13T09:16:46.562Z,17.32
2024-04-13T09:19:17.247Z,17.39
2024-04-13T09:21:48.340Z,17.42
2024-04-13T09:24:19.302Z,17.46
2024-04-13T09:26:50.254Z,17.50
2024-04-13T09:29:29.323Z,17.50
2024-04-13T09:32:00.525Z,17.44
2024-04-13T09:34:31.214Z,17.45
2024-04-13T09:37:09.704Z,17.50
2024-04-13T09:39:42.963Z,17.49
2024-04-13T09:42:14.723Z,17.53
2024-04-13T09:44:45.303Z,17.63
2024-04-13T09:47:14.371Z,17.70
2024-04-13T09:49:44.471Z,17.68
2024-04-13T09:52:15.230Z,17.71
2024-04-13T09:54:48.333Z,17.83
2024-04-13T09:57:19.602Z,17.95
2024-04-13T09:59:50.669Z,18.00
2024-04-13T10:02:21.546Z,18.13
2024-04-13T10:04:52.534Z,18.24
2024-04-13T10:07:26.176Z,18.35
2024-04-13T10:10:01.310Z,18.44
2024-04-13T10:12:38.407Z,18.55
2024-04-13T10:15:11.540Z,18.70
2024-04-13T10:17:45.311Z,18.83
2024-04-13T10:20:17.051Z,18.87
2024-04-13T10:22:56.925Z,18.85
2024-04-13T10:25:32.164Z,18.77
2024-04-13T10:28:10.746Z,18.68
2024-04-13T10:30:51.993Z,18.67
2024-04-13T10:33:24.780Z,18.63
2024-04-13T10:36:02.487Z,18.59
2024-04-13T10:38:35.657Z,18.58
2024-04-13T10:41:06.762Z,18.62
2024-04-13T10:43:37.554Z,18.69
2024-04-13T10:46:09.870Z,18.74
2024-04-13T10:48:45.037Z,18.74
2024-04-13T10:51:15.844Z,18.82
2024-04-13T10:53:46.586Z,18.93
2024-04-13T10:56:17.425Z,19.07
2024-04-13T10:58:51.328Z,19.16
2024-04-13T11:01:21.860Z,19.22
2024-04-13T11:04:02.571Z,19.30
2024-04-13T11:06:34.547Z,19.44
2024-04-13T11:09:06.097Z,19.54
2024-04-13T11:11:37.857Z,19.62
2024-04-13T11:14:10.259Z,19.63
2024-04-13T11:16:43.713Z,19.66
2024-04-13T11:19:17.804Z,19.73
2024-04-13T11:21:50.238Z,19.80
2024-04-13T11:24:21.192Z,19.85
2024-04-13T11:26:52.518Z,19.84
2024-04-13T11:29:23.920Z,19.83
2024-04-13T11:31:56.595Z,19.84
2024-04-13T11:34:27.394Z,19.91
2024-04-13T11:37:04.911Z,19.94
2024-04-13T11:39:37.514Z,19.91
2024-04-13T11:42:09.681Z,19.92
2024-04-13T11:44:41.309Z,19.95
2024-04-13T11:47:12.861Z,19.95
2024-04-13T11:49:44.746Z,19.94
2024-04-13T11:52:18.555Z,19.97
2024-04-13T11:54:50.291Z,20.04
2024-04-13T11:57:21.147Z,20.04
2024-04-13T11:59:51.774Z,20.03
2024-04-13T12:02:23.482Z,19.99
2024-04-13T12:04:53.951Z,19.94
2024-04-13T12:07:24.767Z,19.88
2024-04-13T12:09:55.403Z,19.85
2024-04-13T12:12:26.176Z,19.89
2024-04-13T12:14:56.775Z,19.99
2024-04-13T12:17:27.621Z,20.13
2024-04-13T12:19:58.814Z,20.27
2024-04-13T12:22:29.763Z,20.35
2024-04-13T12:25:00.620Z,20.40
2024-04-13T12:27:32.358Z,20.44
2024-04-13T12:30:04.672Z,20.47
2024-04-13T12:32:35.386Z,20.56
2024-04-13T12:35:08.906Z,20.63
2024-04-13T12:37:39.887Z,20.65
2024-04-13T12:40:12.048Z,20.68
2024-04-13T12:42:42.614Z,20.71
2024-04-13T12:45:13.284Z,20.74
2024-04-13T12:47:44.593Z,20.76
2024-04-13T12:50:15.826Z,20.74
2024-04-13T12:52:51.170Z,20.61
2024-04-13T12:55:21.626Z,20.49
2024-04-13T12:57:52.456Z,20.40
2024-04-13T13:00:23.153Z,20.39
2024-04-13T13:02:53.749Z,20.43
2024-04-13T13:05:25.252Z,20.48
2024-04-13T13:07:55.938Z,20.49
2024-04-13T13:10:26.446Z,20.50
2024-04-13T13:12:57.121Z,20.47
2024-04-13T13:15:27.983Z,20.50
2024-04-13T13:17:58.830Z,20.53
2024-04-13T13:20:29.483Z,20.60
2024-04-13T13:23:00.154Z,20.68
2024-04-13T13:25:31.290Z,20.72
2024-04-13T13:28:01.967Z,20.77
2024-04-13T13:37:19.809Z,20.79
2024-04-13T13:39:50.620Z,20.84
2024-04-13T13:42:21.287Z,20.89
2024-04-13T13:44:52.583Z,20.94
2024-04-13T13:47:23.563Z,20.96
2024-04-13T13:49:54.243Z,21.00
2024-04-13T13:52:24.903Z,21.03
2024-04-13T13:54:55.766Z,21.05
2024-04-13T13:57:26.432Z,21.04
2024-04-13T13:59:57.415Z,21.04
2024-04-13T14:02:28.090Z,21.05
2024-04-13T14:05:01.676Z,21.03
2024-04-13T14:07:35.664Z,21.01
2024-04-13T14:10:07.363Z,21.02
2024-04-13T14:12:38.221Z,21.02
2024-04-13T14:15:09.357Z,21.08
2024-04-13T14:17:40.358Z,21.21
2024-04-13T14:20:12.598Z,21.44
2024-04-13T14:22:43.274Z,21.76
2024-04-13T14:25:13.865Z,22.05
2024-04-13T14:28:02.251Z,22.31
2024-04-13T14:30:33.394Z,22.44
2024-04-13T14:33:04.177Z,22.53
2024-04-13T14:35:34.911Z,22.70
2024-04-13T14:38:08.361Z,22.82
2024-04-13T14:40:38.964Z,22.88
2024-04-13T14:43:09.589Z,22.94
2024-04-13T14:45:40.562Z,22.98
2024-04-13T14:48:12.012Z,23.11
2024-04-13T14:50:42.677Z,23.20
2024-04-13T14:53:13.250Z,23.21
2024-04-13T14:55:45.141Z,23.18
2024-04-13T14:58:15.806Z,23.05
2024-04-13T15:00:47.089Z,22.88
2024-04-13T15:03:20.107Z,22.79
2024-04-13T15:05:50.709Z,22.71
2024-04-13T15:08:21.478Z,22.64
2024-04-13T15:10:52.448Z,22.58
2024-04-13T15:13:22.945Z,22.49
2024-04-13T15:15:53.683Z,22.35
2024-04-13T15:18:24.676Z,22.22
2024-04-13T15:20:59.442Z,22.10
2024-04-13T15:23:31.479Z,21.97
2024-04-13T15:26:02.014Z,21.87
2024-04-13T15:28:34.212Z,21.76
2024-04-13T15:31:06.950Z,21.66
2024-04-13T15:33:37.631Z,21.58
2024-04-13T15:36:09.690Z,21.51
2024-04-13T15:38:40.495Z,21.47
2024-04-13T15:41:11.175Z,21.39
2024-04-13T15:43:42.103Z,21.29
2024-04-13T15:46:12.760Z,21.19
2024-04-13T15:48:43.538Z,21.11
2024-04-13T15:51:14.177Z,21.03
2024-04-13T15:53:44.777Z,20.94
2024-04-13T15:56:15.602Z,20.87
2024-04-13T15:58:46.427Z,20.82
2024-04-13T16:01:17.247Z,20.77
2024-04-13T16:03:47.966Z,20.74
2024-04-13T16:06:18.604Z,20.71
2024-04-13T16:08:49.330Z,20.68
2024-04-13T16:11:20.107Z,20.64
2024-04-13T16:13:50.904Z,20.61
2024-04-13T16:16:26.749Z,20.57
2024-04-13T16:19:01.163Z,20.54
2024-04-13T16:21:32.511Z,20.50
2024-04-13T16:24:03.652Z,20.46
2024-04-13T16:26:34.364Z,20.42
2024-04-13T16:29:04.886Z,20.37
2024-04-13T16:31:35.543Z,20.32
2024-04-13T16:34:06.246Z,20.25
2024-04-13T16:36:36.944Z,20.20
2024-04-13T16:39:07.856Z,20.13
2024-04-13T16:41:38.495Z,20.08
2024-04-13T16:44:12.004Z,20.02
2024-04-13T16:46:42.788Z,19.97
2024-04-13T16:49:13.337Z,19.93
2024-04-13T16:51:43.977Z,19.88
2024-04-13T16:54:14.599Z,19.83
2024-04-13T16:56:45.300Z,19.78
2024-04-13T16:59:15.847Z,19.72
2024-04-13T17:01:46.428Z,19.63
2024-04-13T17:04:17.720Z,19.55
2024-04-13T17:06:48.599Z,19.43
2024-04-13T17:09:21.340Z,19.29
2024-04-13T17:11:51.892Z,19.18
2024-04-13T17:14:22.450Z,19.05
2024-04-13T17:16:52.999Z,18.94
2024-04-13T17:19:23.954Z,18.83
2024-04-13T17:21:54.786Z,18.72
2024-04-13T17:24:25.775Z,18.61
2024-04-13T17:26:56.390Z,18.49
2024-04-13T17:29:27.073Z,18.37
2024-04-13T17:31:57.807Z,18.26
2024-04-13T17:34:29.066Z,18.16
2024-04-13T17:36:59.865Z,18.04
2024-04-13T17:39:30.656Z,17.93
2024-04-13T17:42:01.381Z,17.81
2024-04-13T17:44:32.636Z,17.69
2024-04-13T17:47:03.298Z,17.57
2024-04-13T17:49:34.624Z,17.47
2024-04-13T17:52:05.428Z,17.35
2024-04-13T17:54:36.268Z,17.24
2024-04-13T17:57:07.466Z,17.13
2024-04-13T17:59:39.075Z,16.99
2024-04-13T18:02:09.609Z,16.85
2024-04-13T18:04:40.790Z,16.71
2024-04-13T18:07:11.309Z,16.60
2024-04-13T18:09:42.329Z,16.49
2024-04-13T18:12:12.985Z,16.38
2024-04-13T18:14:43.631Z,16.28
2024-04-13T18:17:14.271Z,16.17
2024-04-13T18:19:43.431Z,16.06
2024-04-13T18:22:13.966Z,15.93
2024-04-13T18:24:44.211Z,15.83
2024-04-13T18:27:14.773Z,15.71
2024-04-13T18:29:45.965Z,15.61
2024-04-13T18:32:16.815Z,15.51
2024-04-13T18:34:47.830Z,15.42
2024-04-13T18:37:18.440Z,15.33
2024-04-13T18:39:47.647Z,15.23
2024-04-13T18:42:19.841Z,15.11
2024-04-13T18:44:50.434Z,15.03
2024-04-13T18:47:21.070Z,14.94
2024-04-13T18:49:55.424Z,14.84
2024-04-13T18:52:25.964Z,14.75
2024-04-13T18:54:57.230Z,14.68
2024-04-13T18:57:27.879Z,14.63
2024-04-13T18:59:57.014Z,14.57
2024-04-13T19:02:27.544Z,14.47
2024-04-13T19:04:58.313Z,14.39
2024-04-13T19:07:29.005Z,14.31
2024-04-13T19:09:59.927Z,14.24
2024-04-13T19:12:30.866Z,14.16
2024-04-13T19:15:03.158Z,14.08
2024-04-13T19:17:35.357Z,13.99
2024-04-13T19:20:06.944Z,13.91
2024-04-13T19:22:37.908Z,13.84
2024-04-13T19:25:09.034Z,13.76
2024-04-13T19:27:39.818Z,13.71
2024-04-13T19:30:11.316Z,13.65
2024-04-13T19:32:41.939Z,13.57
2024-04-13T19:35:11.027Z,13.49
2024-04-13T19:37:41.670Z,13.42
2024-04-13T19:40:11.635Z,13.36
2024-04-13T19:42:42.264Z,13.30
2024-04-13T19:45:11.457Z,13.24
2024-04-13T19:47:42.075Z,13.15
2024-04-13T19:50:17.179Z,13.08
2024-04-13T19:52:48.203Z,13.00
2024-04-13T19:55:18.929Z,12.94
2024-04-13T19:57:50.286Z,12.88
2024-04-13T20:00:21.207Z,12.82
2024-04-13T20:02:50.601Z,12.75
2024-04-13T20:05:20.028Z,12.64
2024-04-13T20:07:50.864Z,12.50
2024-04-13T20:10:21.566Z,12.41
2024-04-13T20:12:52.193Z,12.35
2024-04-13T20:15:40.575Z,12.28
2024-04-13T20:18:29.350Z,12.20
2024-04-13T20:21:00.529Z,12.12
2024-04-13T20:23:32.499Z,12.05
2024-04-13T20:26:03.702Z,12.00
2024-04-13T20:28:34.527Z,11.93
2024-04-13T20:31:03.903Z,11.86
2024-04-13T20:33:35.265Z,11.78
2024-04-13T20:36:06.296Z,11.72
2024-04-13T20:38:37.709Z,11.66
2024-04-13T20:41:08.864Z,11.62
2024-04-13T20:43:40.978Z,11.57
2024-04-13T20:46:11.873Z,11.53
2024-04-13T20:48:42.766Z,11.48
2024-04-13T20:51:13.696Z,11.43
2024-04-13T20:53:44.304Z,11.37
2024-04-13T20:56:14.811Z,11.31
2024-04-13T20:58:45.405Z,11.26
2024-04-13T21:01:16.360Z,11.21
2024-04-13T21:03:47.117Z,11.16
2024-04-13T21:06:17.957Z,11.11
2024-04-13T21:08:48.764Z,11.06
2024-04-13T21:11:19.329Z,11.03
2024-04-13T21:13:50.368Z,10.98
2024-04-13T21:16:21.049Z,10.94
2024-04-13T21:18:50.418Z,10.91
2024-04-13T21:21:21.055Z,10.84
2024-04-13T21:23:51.678Z,10.80
2024-04-13T21:26:22.564Z,10.74
2024-04-13T21:28:51.771Z,10.70
2024-04-13T21:31:22.505Z,10.63
2024-04-13T21:33:53.172Z,10.58
2024-04-13T21:36:23.267Z,10.54
2024-04-13T21:38:53.775Z,10.47
2024-04-13T21:41:24.466Z,10.41
2024-04-13T21:43:55.979Z,10.33
2024-04-13T21:46:26.725Z,10.25
2024-04-13T21:48:57.650Z,10.20
2024-04-13T21:51:28.197Z,10.16
2024-04-13T21:53:59.186Z,10.12
2024-04-13T21:56:29.880Z,10.10
2024-04-13T21:59:00.820Z,10.08
2024-04-13T22:01:30.009Z,10.05
2024-04-13T22:04:01.823Z,9.99
2024-04-13T22:06:32.411Z,9.94
2024-04-13T22:09:05.306Z,9.90
2024-04-13T22:11:35.903Z,9.88
2024-04-13T22:14:06.456Z,9.85
2024-04-13T22:16:37.179Z,9.82
2024-04-13T22:19:07.949Z,9.79
2024-04-13T22:21:38.754Z,9.75
2024-04-13T22:24:10.484Z,9.71
2024-04-13T22:26:41.263Z,9.67
2024-04-13T22:29:11.870Z,9.64
2024-04-13T22:31:42.508Z,9.58
2024-04-13T22:34:12.974Z,9.53
2024-04-13T22:36:43.828Z,9.47
2024-04-13T22:39:17.175Z,9.42
2024-04-13T22:41:48.762Z,9.38
2024-04-13T22:44:17.938Z,9.35
2024-04-13T22:46:48.609Z,9.30
2024-04-13T22:49:19.236Z,9.22
2024-04-13T22:51:50.126Z,9.14
2024-04-13T22:54:20.956Z,9.12
2024-04-13T22:56:51.535Z,9.11
2024-04-13T22:59:22.093Z,9.10
2024-04-13T23:01:53.278Z,9.10
2024-04-13T23:04:24.206Z,9.10
2024-04-13T23:06:54.876Z,9.10
2024-04-13T23:09:25.975Z,9.10
2024-04-13T23:11:55.294Z,9.09
2024-04-13T23:14:25.908Z,9.04
2024-04-13T23:16:56.389Z,9.03
2024-04-13T23:19:27.167Z,9.01
2024-04-13T23:21:57.868Z,9.00
2024-04-13T23:24:28.609Z,8.97
2024-04-13T23:26:59.236Z,8.93
2024-04-13T23:29:29.706Z,8.90
2024-04-13T23:32:00.448Z,8.88
2024-04-13T23:34:32.279Z,8.81
2024-04-13T23:37:02.859Z,8.77
2024-04-13T23:39:32.324Z,8.72
2024-04-13T23:42:03.083Z,8.67
2024-04-13T23:44:34.235Z,8.66
2024-04-13T23:47:05.317Z,8.64
2024-04-13T23:49:34.525Z,8.62
2024-04-13T23:52:05.957Z,8.60
2024-04-13T23:54:36.602Z,8.58
2024-04-13T23:57:07.718Z,8.56
2024-04-13T23:59:38.287Z,8.54
